Time;durP1;ratioP1;P1;durP2;ratioP2;P2;SDS_P1;SDS_P2;PMS_P1;PMS_P2;Temp;Humidity;BMP_temperature;BMP_pressure;BME280_temperature;BME280_humidity;BME280_pressure;Samples;Min_cycle;Max_cycle;Signal;HPM_P1;HPM_P2
2023/12/18 00:10:03;;;;;;;12.50;4.83;;;4.50;99.90;;;;;;2602417;54;20258;31
2023/12/18 00:15:26;;;;;;;10.10;4.57;;;4.40;99.90;;;;;;2622235;46;20026;31
2023/12/18 00:23:53;;;;;;;9.23;3.80;;;4.40;99.90;;;;;;2603196;54;20081;31
2023/12/18 00:26:36;;;;;;;9.53;4.20;;;4.40;99.90;;;;;;2621855;46;20030;31
2023/12/18 00:35:24;;;;;;;11.30;4.05;;;4.40;99.90;;;;;;2603270;54;20772;31
2023/12/18 00:41:02;;;;;;;14.40;4.83;;;4.40;99.90;;;;;;2603114;54;20022;31
2023/12/18 00:43:39;;;;;;;10.53;4.50;;;4.40;99.90;;;;;;2603324;54;20900;31
2023/12/18 00:58:57;;;;;;;11.80;4.30;;;4.30;99.90;;;;;;2602980;54;20871;31
2023/12/18 01:01:36;;;;;;;13.60;4.45;;;4.30;99.90;;;;;;2603120;54;20053;31
2023/12/18 01:59:48;;;;;;;11.95;4.97;;;3.70;99.90;;;;;;2611009;54;20030;31
2023/12/18 02:02:26;;;;;;;11.02;5.13;;;3.70;99.90;;;;;;2603204;54;20053;31
2023/12/18 02:05:02;;;;;;;7.63;4.43;;;3.70;99.90;;;;;;2621696;46;20924;31
2023/12/18 02:10:45;;;;;;;10.50;4.60;;;3.70;99.90;;;;;;2602509;54;20056;31
2023/12/18 02:13:24;;;;;;;11.33;5.10;;;3.70;99.90;;;;;;2700698;39;20706;31
2023/12/18 02:21:55;;;;;;;9.40;4.68;;;3.60;99.90;;;;;;2602387;54;21090;31
2023/12/18 02:24:35;;;;;;;9.33;4.40;;;3.60;99.90;;;;;;2602218;54;20888;31
2023/12/18 02:27:10;;;;;;;10.00;4.20;;;3.60;99.90;;;;;;2603011;54;20284;31
2023/12/18 02:29:47;;;;;;;8.00;4.32;;;3.60;99.90;;;;;;2602681;54;20077;31
2023/12/18 02:32:22;;;;;;;8.90;4.70;;;3.50;99.90;;;;;;2621198;46;20078;31
2023/12/18 02:35:07;;;;;;;7.97;4.22;;;3.50;99.90;;;;;;2602390;54;20064;31
2023/12/18 02:37:44;;;;;;;8.27;4.10;;;3.50;99.90;;;;;;2621044;47;20027;31
2023/12/18 02:40:23;;;;;;;6.60;3.35;;;3.40;99.90;;;;;;2602758;54;20919;31
2023/12/18 02:42:58;;;;;;;8.80;4.30;;;3.50;99.90;;;;;;2621190;46;20031;31
2023/12/18 02:48:21;;;;;;;8.50;3.95;;;3.40;99.90;;;;;;2621553;46;21122;31
2023/12/18 02:50:56;;;;;;;9.45;3.72;;;3.50;99.90;;;;;;2621644;46;20795;31
2023/12/18 02:53:31;;;;;;;8.03;3.73;;;3.40;99.90;;;;;;2602704;54;20034;31
2023/12/18 02:56:05;;;;;;;8.63;3.40;;;3.40;99.90;;;;;;2602843;54;21048;31
2023/12/18 02:58:45;;;;;;;7.95;3.15;;;3.40;99.90;;;;;;2603100;54;20027;31
2023/12/18 03:01:22;;;;;;;8.20;3.33;;;3.50;99.90;;;;;;2602874;54;20030;31
2023/12/18 03:03:57;;;;;;;7.65;3.15;;;3.50;99.90;;;;;;2602680;54;20037;31
2023/12/18 03:06:36;;;;;;;5.20;2.60;;;3.40;99.90;;;;;;2602463;54;20030;31
2023/12/18 03:09:11;;;;;;;6.55;2.97;;;3.40;99.90;;;;;;2602688;54;20274;31
2023/12/18 03:11:49;;;;;;;6.20;3.15;;;3.40;99.90;;;;;;2603016;54;21457;31
2023/12/18 03:14:23;;;;;;;7.20;2.70;;;3.40;99.90;;;;;;2602947;54;20033;31
2023/12/18 03:17:00;;;;;;;5.95;3.20;;;3.40;99.90;;;;;;2602728;54;20027;31
2023/12/18 03:19:36;;;;;;;5.35;2.55;;;3.40;99.90;;;;;;2602407;54;20133;31
2023/12/18 03:22:13;;;;;;;3.97;2.27;;;3.40;99.90;;;;;;2602838;54;20746;31
2023/12/18 03:24:48;;;;;;;6.53;3.63;;;3.30;99.90;;;;;;2620903;46;20390;31
2023/12/18 03:27:21;;;;;;;8.55;3.20;;;3.30;99.90;;;;;;2621106;46;22367;31
2023/12/18 03:29:56;;;;;;;8.57;3.28;;;3.20;99.90;;;;;;2602317;54;20056;31
2023/12/18 03:32:32;;;;;;;8.03;2.83;;;3.20;99.90;;;;;;2602017;54;21874;31
2023/12/18 03:35:08;;;;;;;7.35;3.00;;;3.20;99.90;;;;;;2620891;46;20750;31
2023/12/18 03:37:45;;;;;;;8.43;3.50;;;3.20;99.90;;;;;;2602802;54;20081;31
2023/12/18 03:40:20;;;;;;;5.38;3.15;;;3.20;99.90;;;;;;2621167;46;20038;31
2023/12/18 03:42:55;;;;;;;8.25;3.10;;;3.10;99.90;;;;;;2602770;54;20037;31
2023/12/18 03:45:30;;;;;;;7.00;3.25;;;3.10;99.90;;;;;;2621319;46;20893;31
2023/12/18 03:48:09;;;;;;;7.28;4.03;;;3.10;99.90;;;;;;2602683;54;20750;31
2023/12/18 03:50:44;;;;;;;6.30;3.42;;;3.10;99.90;;;;;;2602532;54;20037;31
2023/12/18 03:53:18;;;;;;;7.37;3.87;;;3.00;99.90;;;;;;2621166;46;20038;31
2023/12/18 03:55:53;;;;;;;11.30;4.15;;;3.00;99.90;;;;;;2602777;54;20053;31
2023/12/18 03:58:28;;;;;;;8.10;3.60;;;3.00;99.90;;;;;;2621188;47;20031;31
2023/12/18 04:01:06;;;;;;;9.20;4.28;;;3.00;99.90;;;;;;2621308;47;20030;31
2023/12/18 04:03:41;;;;;;;8.30;3.75;;;3.00;99.90;;;;;;2602495;54;20962;31
2023/12/18 04:06:19;;;;;;;11.23;5.45;;;3.00;99.90;;;;;;2621173;47;20900;31
2023/12/18 04:08:51;;;;;;;9.20;4.47;;;3.00;99.90;;;;;;2602807;54;22373;31
2023/12/18 04:11:25;;;;;;;10.05;5.85;;;3.00;99.90;;;;;;2602902;54;20872;31
2023/12/18 04:14:00;;;;;;;10.03;5.40;;;3.00;99.90;;;;;;2602518;54;21435;31
2023/12/18 04:16:35;;;;;;;10.40;4.22;;;2.90;99.90;;;;;;2602306;54;20261;31
2023/12/18 04:19:11;;;;;;;8.07;4.47;;;2.90;99.90;;;;;;2602500;54;20887;31
2023/12/18 04:21:48;;;;;;;8.88;4.65;;;2.90;99.90;;;;;;2620981;47;20618;31
2023/12/18 04:24:23;;;;;;;9.63;5.32;;;2.90;99.90;;;;;;2602520;54;20031;31
2023/12/18 04:26:59;;;;;;;8.53;4.70;;;2.90;99.90;;;;;;2620448;47;20866;31
2023/12/18 04:29:34;;;;;;;13.65;5.60;;;2.80;99.90;;;;;;2602681;54;20246;31
2023/12/18 04:32:09;;;;;;;10.25;5.15;;;2.80;99.90;;;;;;2602668;54;20030;31
2023/12/18 04:34:45;;;;;;;10.43;5.45;;;2.80;99.90;;;;;;2602557;54;20051;31
2023/12/18 04:37:19;;;;;;;8.50;4.75;;;2.80;99.90;;;;;;2602437;54;20026;31
2023/12/18 04:39:57;;;;;;;8.73;5.30;;;2.80;99.90;;;;;;2620782;47;20089;31
2023/12/18 04:42:32;;;;;;;11.15;6.28;;;2.90;99.90;;;;;;2602497;54;20608;31
2023/12/18 04:45:08;;;;;;;10.70;5.75;;;2.90;99.90;;;;;;2602290;54;20023;31
2023/12/18 04:47:43;;;;;;;14.60;6.50;;;2.90;99.90;;;;;;2602087;54;20781;31
2023/12/18 04:50:21;;;;;;;11.95;5.38;;;2.90;99.90;;;;;;2620961;47;20085;31
2023/12/18 04:52:55;;;;;;;9.67;5.43;;;3.00;99.90;;;;;;2602238;54;20046;31
2023/12/18 04:55:34;;;;;;;11.15;5.55;;;3.00;99.90;;;;;;2602464;54;20034;31
2023/12/18 04:58:09;;;;;;;13.10;5.75;;;3.00;99.90;;;;;;2602354;54;20900;31
2023/12/18 05:00:44;;;;;;;11.35;5.40;;;3.00;99.90;;;;;;2603166;54;20032;31
2023/12/18 05:03:19;;;;;;;12.37;5.77;;;2.90;99.90;;;;;;2602916;54;20134;31
2023/12/18 05:05:54;;;;;;;11.63;5.13;;;3.00;99.90;;;;;;2621807;46;20834;31
2023/12/18 05:08:29;;;;;;;9.30;4.97;;;2.90;99.90;;;;;;2603253;54;20049;31
2023/12/18 05:11:06;;;;;;;9.18;5.32;;;3.00;99.90;;;;;;2603246;54;20081;31
2023/12/18 05:13:41;;;;;;;13.02;5.40;;;3.00;99.90;;;;;;2603130;54;20037;31
2023/12/18 05:16:16;;;;;;;10.55;5.50;;;3.00;99.90;;;;;;2603240;54;20038;31
2023/12/18 05:18:53;;;;;;;9.73;5.18;;;3.00;99.90;;;;;;2603290;54;20056;31
2023/12/18 05:21:28;;;;;;;8.95;5.07;;;3.00;99.90;;;;;;2621834;46;20872;31
2023/12/18 05:24:03;;;;;;;8.70;5.20;;;3.00;99.90;;;;;;2621580;46;20030;31
2023/12/18 05:26:41;;;;;;;8.65;4.53;;;3.00;99.90;;;;;;2603111;54;20882;31
2023/12/18 05:29:18;;;;;;;6.90;4.32;;;3.00;99.90;;;;;;2603065;54;20057;31
2023/12/18 05:31:53;;;;;;;10.15;4.20;;;3.00;99.90;;;;;;2603132;54;20031;31
2023/12/18 05:34:29;;;;;;;7.28;4.55;;;3.00;99.90;;;;;;2603088;54;20764;31
2023/12/18 05:37:04;;;;;;;11.60;4.93;;;3.00;99.90;;;;;;2621391;46;22521;31
2023/12/18 05:39:39;;;;;;;10.27;5.60;;;3.00;99.90;;;;;;2602831;54;20608;31
2023/12/18 05:42:19;;;;;;;10.27;5.30;;;2.90;99.90;;;;;;2602914;54;20069;31
2023/12/18 05:44:54;;;;;;;11.38;5.57;;;2.90;99.90;;;;;;2603127;54;20034;31
2023/12/18 05:47:29;;;;;;;11.38;5.53;;;2.90;99.90;;;;;;2603353;54;20037;31
2023/12/18 05:50:04;;;;;;;9.65;5.90;;;3.00;99.90;;;;;;2603006;54;20605;31
2023/12/18 05:52:37;;;;;;;10.07;5.20;;;2.90;99.90;;;;;;2602956;54;21179;31
2023/12/18 05:55:12;;;;;;;11.70;5.70;;;2.90;99.90;;;;;;2602943;54;20850;31
2023/12/18 05:57:51;;;;;;;9.60;5.78;;;2.90;99.90;;;;;;2602962;54;20069;31
2023/12/18 06:00:29;;;;;;;11.68;5.57;;;2.90;99.90;;;;;;2602792;54;20620;31
2023/12/18 06:03:03;;;;;;;10.18;5.53;;;2.90;99.90;;;;;;2603215;54;20604;31
2023/12/18 06:05:38;;;;;;;9.13;5.10;;;2.90;99.90;;;;;;2602704;54;20605;31
2023/12/18 06:08:13;;;;;;;10.88;5.20;;;2.90;99.90;;;;;;2603105;54;20026;31
2023/12/18 06:10:48;;;;;;;12.63;5.57;;;2.80;99.90;;;;;;2602969;54;20908;31
2023/12/18 06:13:26;;;;;;;10.03;4.67;;;2.80;99.90;;;;;;2603174;54;20018;31
2023/12/18 06:16:02;;;;;;;11.35;5.53;;;2.80;99.90;;;;;;2602811;54;20337;31
2023/12/18 06:18:34;;;;;;;;;;;2.70;99.90;;;;;;2621811;46;22284;31
2023/12/18 06:21:09;;;;;;;7.05;3.80;;;2.70;99.90;;;;;;2602875;54;20669;31
2023/12/18 06:23:45;;;;;;;7.65;4.75;;;2.70;99.90;;;;;;2603096;54;20883;31
2023/12/18 06:26:20;;;;;;;8.65;4.38;;;2.70;99.90;;;;;;2603255;54;20886;31
2023/12/18 06:28:56;;;;;;;9.80;4.97;;;2.70;99.90;;;;;;2603091;54;20030;31
2023/12/18 06:34:03;;;;;;;10.20;5.25;;;2.60;99.90;;;;;;2603024;54;20068;31
2023/12/18 06:36:39;;;;;;;9.45;5.30;;;2.60;99.90;;;;;;2602990;54;20033;31
2023/12/18 06:39:14;;;;;;;9.90;6.47;;;2.60;99.90;;;;;;2621723;46;20030;31
2023/12/18 06:41:49;;;;;;;11.88;5.53;;;2.60;99.90;;;;;;2602862;54;20050;31
2023/12/18 06:44:26;;;;;;;9.95;5.25;;;2.60;99.90;;;;;;2602860;54;20695;31
2023/12/18 06:47:01;;;;;;;11.37;6.10;;;2.60;99.90;;;;;;2621760;46;20034;31
2023/12/18 06:49:36;;;;;;;12.35;5.80;;;2.60;99.90;;;;;;2603139;54;20836;31
2023/12/18 06:52:11;;;;;;;9.83;5.47;;;2.60;99.90;;;;;;2603081;54;20605;31
2023/12/18 06:54:45;;;;;;;11.65;6.90;;;2.70;99.90;;;;;;2701344;39;21451;31
2023/12/18 06:57:20;;;;;;;13.65;6.65;;;2.70;99.90;;;;;;2602901;54;20024;31
2023/12/18 06:59:55;;;;;;;13.15;6.65;;;2.70;99.90;;;;;;2621359;46;22379;31
2023/12/18 07:02:32;;;;;;;10.40;6.18;;;2.70;99.90;;;;;;2621215;46;20027;31
2023/12/18 07:05:07;;;;;;;14.68;6.50;;;2.80;99.90;;;;;;2602982;54;20746;31
2023/12/18 07:07:42;;;;;;;14.65;6.47;;;2.80;99.90;;;;;;2602947;54;20878;31
2023/12/18 07:10:17;;;;;;;11.60;6.05;;;2.80;99.90;;;;;;2602703;54;20026;31
2023/12/18 07:12:52;;;;;;;12.37;5.93;;;2.80;99.90;;;;;;2719433;39;21479;31
2023/12/18 07:15:29;;;;;;;12.48;6.10;;;2.80;99.90;;;;;;2602801;54;22488;31
2023/12/18 07:18:07;;;;;;;12.60;6.78;;;2.80;99.90;;;;;;2620953;46;20037;31
2023/12/18 07:20:43;;;;;;;13.50;6.27;;;2.80;99.90;;;;;;2701102;39;21330;31
2023/12/18 07:23:20;;;;;;;13.65;6.75;;;2.80;99.90;;;;;;2602863;54;21168;31
2023/12/18 07:25:55;;;;;;;10.83;5.63;;;3.10;99.90;;;;;;2621141;46;20033;31
2023/12/18 07:28:30;;;;;;;10.43;5.50;;;3.50;99.90;;;;;;2602816;54;21837;31
2023/12/18 07:31:07;;;;;;;11.25;5.53;;;4.00;99.90;;;;;;2602670;54;20037;31
2023/12/18 07:33:42;;;;;;;12.63;5.53;;;4.30;99.90;;;;;;2602739;54;20950;31
2023/12/18 07:36:17;;;;;;;12.35;5.05;;;4.60;99.90;;;;;;2610980;46;21196;31
2023/12/18 07:38:56;;;;;;;10.27;5.00;;;5.10;99.90;;;;;;2602675;54;20053;31
2023/12/18 07:41:32;;;;;;;11.60;5.10;;;5.70;99.90;;;;;;2602714;54;20030;31
2023/12/18 07:44:07;;;;;;;8.18;4.80;;;6.30;99.90;;;;;;2602580;54;20065;31
2023/12/18 07:46:48;;;;;;;9.00;5.10;;;7.00;99.90;;;;;;2602601;54;20873;31
2023/12/18 07:49:23;;;;;;;11.75;5.20;;;7.70;99.90;;;;;;2602674;54;20051;31
2023/12/18 07:51:58;;;;;;;11.80;5.80;;;8.40;99.90;;;;;;2602511;54;20988;31
2023/12/18 07:54:33;;;;;;;9.48;5.00;;;8.80;99.90;;;;;;2602677;54;20027;31
2023/12/18 07:57:08;;;;;;;7.03;4.57;;;9.30;99.90;;;;;;2620904;46;20058;31
2023/12/18 07:59:43;;;;;;;9.73;5.32;;;9.80;99.90;;;;;;2700939;39;20412;31
2023/12/18 08:02:20;;;;;;;10.23;5.60;;;10.10;99.90;;;;;;2602655;54;20876;31
2023/12/18 08:04:55;;;;;;;12.80;5.95;;;10.60;99.90;;;;;;2602454;54;20853;31
2023/12/18 08:07:30;;;;;;;11.50;6.32;;;10.50;94.10;;;;;;2602356;54;20090;31
2023/12/18 08:10:05;;;;;;;11.38;6.60;;;10.00;99.90;;;;;;2602239;54;20034;31
2023/12/18 08:12:40;;;;;;;13.15;7.10;;;9.50;99.90;;;;;;2602630;54;20033;31
2023/12/18 08:15:18;;;;;;;13.68;7.70;;;9.20;37.70;;;;;;2602642;54;20904;31
2023/12/18 08:17:55;;;;;;;15.30;8.25;;;9.20;47.20;;;;;;2602230;54;20101;31
2023/12/18 08:20:28;;;;;;;17.85;8.75;;;9.70;75.80;;;;;;2620771;47;21471;31
2023/12/18 08:23:03;;;;;;;20.63;9.77;;;9.90;51.80;;;;;;2602308;54;20854;31
2023/12/18 08:25:35;;;;;;;20.10;10.57;;;10.30;58.20;;;;;;2602119;54;20239;31
2023/12/18 08:28:10;;;;;;;17.30;9.07;;;10.60;50.20;;;;;;2602322;54;20839;31
2023/12/18 08:30:45;;;;;;;14.60;7.40;;;10.90;20.40;;;;;;2602259;54;20914;31
2023/12/18 08:33:23;;;;;;;16.55;9.50;;;11.20;24.10;;;;;;2602190;54;20988;31
2023/12/18 08:35:58;;;;;;;12.07;7.50;;;11.40;24.20;;;;;;2621272;47;20069;31
2023/12/18 08:38:33;;;;;;;14.33;7.67;;;11.50;7.10;;;;;;2621531;46;21138;31
2023/12/18 08:41:08;;;;;;;13.43;7.82;;;11.70;29.60;;;;;;2603219;54;20030;31
2023/12/18 08:43:43;;;;;;;13.07;7.17;;;11.80;1.00;;;;;;2602879;54;20026;31
2023/12/18 08:46:28;;;;;;;14.57;7.35;;;11.80;7.90;;;;;;2603118;54;20845;31
2023/12/18 08:49:06;;;;;;;11.07;5.40;;;11.70;1.00;;;;;;2602981;54;20031;31
2023/12/18 09:09:40;;;;;;;5.10;1.65;;;10.90;14.10;;;;;;2602773;54;20808;31
2023/12/18 09:12:15;;;;;;;4.40;1.30;;;10.90;16.60;;;;;;2602997;54;20042;31
2023/12/18 09:27:01;;;;;;;4.03;2.13;;;10.90;26.70;;;;;;2610724;54;20239;31
2023/12/18 09:29:35;;;;;;;1.67;1.10;;;10.80;31.70;;;;;;2602897;54;20037;31
2023/12/18 09:32:13;;;;;;;1.75;1.00;;;10.90;35.60;;;;;;2621457;46;20037;31
2023/12/18 09:49:47;;;;;;;1.88;0.95;;;10.20;40.90;;;;;;2610542;54;20022;31
2023/12/18 09:52:23;;;;;;;2.63;1.13;;;10.30;48.20;;;;;;2603032;54;20027;31
2023/12/18 09:55:04;;;;;;;2.85;1.20;;;10.40;35.50;;;;;;2602902;54;20034;31
2023/12/18 09:57:42;;;;;;;2.45;1.30;;;10.30;37.00;;;;;;2602658;54;20231;31
2023/12/18 10:00:16;;;;;;;4.40;1.40;;;10.40;41.20;;;;;;2603142;54;20053;31
2023/12/18 11:01:34;;;;;;;2.35;1.30;;;9.70;76.30;;;;;;2602576;54;20508;31
2023/12/18 11:40:52;;;;;;;2.28;1.10;;;9.20;99.90;;;;;;2602391;54;20516;31
2023/12/18 11:43:26;;;;;;;4.38;2.35;;;9.10;99.90;;;;;;2621206;46;20031;31
2023/12/18 11:49:11;;;;;;;3.22;1.38;;;9.00;99.90;;;;;;2610505;54;20224;31
2023/12/18 11:51:49;;;;;;;4.63;1.70;;;9.00;99.90;;;;;;2602465;54;20122;31
2023/12/18 12:44:21;;;;;;;5.10;1.70;;;8.70;99.90;;;;;;2611065;54;20513;31
2023/12/18 12:53:03;;;;;;;4.20;1.45;;;8.80;99.90;;;;;;2603314;54;20026;31
2023/12/18 12:58:57;;;;;;;4.50;1.85;;;8.80;99.90;;;;;;2611074;54;20553;31
2023/12/18 13:01:41;;;;;;;3.10;1.60;;;8.90;99.90;;;;;;2621704;46;20053;31
2023/12/18 13:10:19;;;;;;;3.90;1.40;;;9.00;99.90;;;;;;2610939;54;20019;31
2023/12/18 13:12:57;;;;;;;3.13;1.27;;;9.00;99.90;;;;;;2701517;39;21349;31
2023/12/18 13:15:34;;;;;;;2.80;1.45;;;9.00;99.90;;;;;;2602974;54;20090;31
2023/12/18 13:18:10;;;;;;;3.88;1.33;;;9.10;99.90;;;;;;2603080;54;20034;31
2023/12/18 13:20:47;;;;;;;3.35;1.35;;;9.10;99.90;;;;;;2602692;54;20841;31
2023/12/18 13:23:21;;;;;;;3.95;1.42;;;9.10;99.90;;;;;;2603239;54;20027;31
2023/12/18 13:26:01;;;;;;;3.80;1.33;;;9.10;99.90;;;;;;2603037;54;20030;31
2023/12/18 13:31:12;;;;;;;3.70;1.55;;;9.10;99.90;;;;;;2603095;54;20935;31
2023/12/18 13:33:49;;;;;;;3.40;1.70;;;9.00;99.90;;;;;;2602984;54;20027;31
2023/12/18 13:36:24;;;;;;;4.60;1.40;;;9.00;99.90;;;;;;2602905;54;20924;31
2023/12/18 13:38:59;;;;;;;4.13;1.60;;;9.00;99.90;;;;;;2602781;54;20053;31
2023/12/18 13:41:38;;;;;;;3.42;1.20;;;9.00;99.90;;;;;;2603052;54;20036;31
2023/12/18 13:44:13;;;;;;;3.00;1.30;;;9.00;99.90;;;;;;2602951;54;20776;31
2023/12/18 13:46:47;;;;;;;3.70;1.42;;;9.00;99.90;;;;;;2602889;54;20030;31
2023/12/18 13:49:22;;;;;;;2.72;1.67;;;9.00;99.90;;;;;;2602763;54;20629;31
2023/12/18 13:51:58;;;;;;;2.80;1.50;;;8.90;99.90;;;;;;2602853;54;20713;31
2023/12/18 13:57:39;;;;;;;3.47;1.30;;;8.80;99.90;;;;;;2602916;54;20042;31
2023/12/18 14:00:22;;;;;;;2.73;1.60;;;8.70;99.90;;;;;;2602919;54;20601;31
2023/12/18 14:03:03;;;;;;;4.03;1.80;;;8.70;99.90;;;;;;2621519;46;20868;31
2023/12/18 14:05:38;;;;;;;4.43;1.98;;;8.70;99.90;;;;;;2602867;54;20899;31
2023/12/18 14:08:15;;;;;;;2.78;1.38;;;8.60;99.90;;;;;;2602870;54;20885;31
2023/12/18 14:10:53;;;;;;;5.68;1.92;;;8.60;99.90;;;;;;2602932;54;20875;31
2023/12/18 14:13:31;;;;;;;3.88;1.92;;;8.50;99.90;;;;;;2602942;54;20885;31
2023/12/18 14:16:07;;;;;;;2.92;1.50;;;8.50;99.90;;;;;;2621287;46;20026;31
2023/12/18 14:18:42;;;;;;;5.53;2.30;;;8.40;99.90;;;;;;2602816;54;20030;31
2023/12/18 14:21:19;;;;;;;4.25;2.15;;;8.40;99.90;;;;;;2602680;54;20050;31
2023/12/18 14:23:57;;;;;;;4.88;2.05;;;8.40;99.90;;;;;;2701448;39;22410;31
2023/12/18 14:26:33;;;;;;;6.15;2.25;;;8.30;99.90;;;;;;2602827;54;20743;31
2023/12/18 14:29:11;;;;;;;;;;;8.30;99.90;;;;;;2602861;54;20811;31
2023/12/18 14:31:47;;;;;;;3.55;2.03;;;8.20;99.90;;;;;;2602485;54;20481;31
2023/12/18 14:34:22;;;;;;;5.72;2.03;;;8.20;99.90;;;;;;2621195;46;20049;31
2023/12/18 14:37:00;;;;;;;4.78;2.03;;;8.20;99.90;;;;;;2602662;54;20613;31
2023/12/18 14:39:35;;;;;;;7.40;3.00;;;8.20;99.90;;;;;;2602734;54;20585;31
2023/12/18 14:42:11;;;;;;;3.55;2.10;;;8.20;99.90;;;;;;2602726;54;20794;31
2023/12/18 14:44:49;;;;;;;4.07;2.20;;;8.20;99.90;;;;;;2602765;54;20034;31
2023/12/18 14:47:24;;;;;;;4.53;2.25;;;8.20;99.90;;;;;;2602620;54;20030;31
2023/12/18 14:49:59;;;;;;;5.40;2.10;;;8.20;99.90;;;;;;2621117;46;20903;31
2023/12/18 14:52:35;;;;;;;4.00;2.00;;;8.20;99.90;;;;;;2602608;54;20097;31
2023/12/18 14:55:11;;;;;;;5.03;2.17;;;8.20;99.90;;;;;;2602844;54;20864;31
2023/12/18 14:57:47;;;;;;;3.77;1.50;;;8.20;99.90;;;;;;2602904;54;20874;31
2023/12/18 15:00:25;;;;;;;4.05;1.70;;;8.20;99.90;;;;;;2602633;54;20249;31
2023/12/18 15:03:02;;;;;;;4.13;2.13;;;8.20;99.90;;;;;;2602581;54;20034;31
2023/12/18 15:05:37;;;;;;;5.10;1.70;;;8.10;99.90;;;;;;2602825;54;20753;31
2023/12/18 15:08:12;;;;;;;5.03;2.28;;;8.10;99.90;;;;;;2602700;54;20037;31
2023/12/18 15:10:47;;;;;;;5.45;2.42;;;8.10;99.90;;;;;;2620967;46;20054;31
2023/12/18 15:13:23;;;;;;;2.70;1.90;;;8.10;99.90;;;;;;2602651;54;20907;31
2023/12/18 15:16:01;;;;;;;3.90;1.80;;;8.00;99.90;;;;;;2602695;54;20097;31
2023/12/18 15:18:36;;;;;;;3.73;1.90;;;8.00;99.90;;;;;;2601983;54;20050;31
2023/12/18 15:21:15;;;;;;;3.72;2.08;;;8.00;99.90;;;;;;2602459;54;20089;31
2023/12/18 15:23:50;;;;;;;6.80;2.35;;;8.00;99.90;;;;;;2602588;54;20043;31
2023/12/18 15:26:25;;;;;;;4.60;2.10;;;8.00;99.90;;;;;;2621082;46;20030;31
2023/12/18 15:29:00;;;;;;;4.90;2.42;;;8.00;99.90;;;;;;2700993;39;21437;31
2023/12/18 15:31:38;;;;;;;4.23;2.03;;;8.00;99.90;;;;;;2602650;54;20070;31
2023/12/18 15:34:13;;;;;;;4.82;2.40;;;8.00;99.90;;;;;;2602755;54;20042;31
2023/12/18 15:36:48;;;;;;;5.82;2.65;;;7.90;99.90;;;;;;2602686;54;20910;31
2023/12/18 15:39:23;;;;;;;6.60;3.07;;;7.90;99.90;;;;;;2602635;54;20096;31
2023/12/18 15:41:58;;;;;;;4.80;3.10;;;7.90;99.90;;;;;;2602520;54;20277;31
2023/12/18 15:44:33;;;;;;;5.20;2.20;;;7.80;99.90;;;;;;2602461;54;20037;31
2023/12/18 15:47:12;;;;;;;4.77;2.17;;;7.80;99.90;;;;;;2621521;46;20113;31
2023/12/18 15:49:47;;;;;;;6.20;2.88;;;7.70;99.90;;;;;;2602455;54;20057;31
2023/12/18 15:52:22;;;;;;;4.80;2.25;;;7.70;99.90;;;;;;2602559;54;20088;31
2023/12/18 15:54:57;;;;;;;7.28;3.13;;;7.70;99.90;;;;;;2620759;46;20129;31
2023/12/18 15:57:32;;;;;;;5.18;2.80;;;7.60;99.90;;;;;;2602518;54;20075;31
2023/12/18 16:00:09;;;;;;;10.13;4.03;;;7.70;99.90;;;;;;2620864;46;20038;31
2023/12/18 16:02:47;;;;;;;5.43;3.13;;;7.70;99.90;;;;;;2602440;54;20042;31
2023/12/18 16:05:22;;;;;;;4.75;2.90;;;7.60;99.90;;;;;;2719219;39;21070;31
2023/12/18 16:07:57;;;;;;;8.63;4.35;;;7.60;99.90;;;;;;2602517;54;20894;31
2023/12/18 16:10:37;;;;;;;8.25;4.35;;;7.60;99.90;;;;;;2620847;47;20053;31
2023/12/18 16:13:13;;;;;;;9.85;4.20;;;7.60;99.90;;;;;;2700893;39;20569;31
2023/12/18 16:15:48;;;;;;;10.15;4.22;;;7.60;99.90;;;;;;2602371;54;20062;31
2023/12/18 16:18:26;;;;;;;10.45;5.20;;;7.60;99.90;;;;;;2602303;54;20749;31
2023/12/18 16:21:00;;;;;;;10.95;4.47;;;7.60;99.90;;;;;;2620863;47;20030;31
2023/12/18 16:23:33;;;;;;;10.70;5.10;;;7.60;99.90;;;;;;2620668;47;21812;31
2023/12/18 16:26:08;;;;;;;10.60;4.80;;;7.50;99.90;;;;;;2602351;54;20043;31
2023/12/18 16:28:45;;;;;;;8.73;5.18;;;7.50;99.90;;;;;;2620846;47;20026;31
2023/12/18 16:31:20;;;;;;;8.10;4.63;;;7.50;99.90;;;;;;2602245;54;20482;31
2023/12/18 16:33:58;;;;;;;11.98;4.65;;;7.50;99.90;;;;;;2602439;54;20891;31
2023/12/18 16:36:33;;;;;;;10.30;5.40;;;7.50;99.90;;;;;;2602420;54;20942;31
2023/12/18 16:39:08;;;;;;;19.77;8.05;;;7.50;99.90;;;;;;2602360;54;20031;31
2023/12/18 16:41:44;;;;;;;15.75;7.25;;;7.40;99.90;;;;;;2602413;54;20724;31
2023/12/18 16:44:19;;;;;;;20.35;7.72;;;7.50;99.90;;;;;;2602251;54;20513;31
2023/12/18 16:46:54;;;;;;;20.02;8.68;;;7.40;99.90;;;;;;2602170;54;20027;31
2023/12/18 16:49:32;;;;;;;19.40;9.85;;;7.40;99.90;;;;;;2620713;47;20027;31
2023/12/18 16:52:07;;;;;;;20.63;9.48;;;7.40;99.90;;;;;;2620468;47;20895;31
2023/12/18 16:54:42;;;;;;;18.30;7.50;;;7.40;99.90;;;;;;2602411;54;20053;31
2023/12/18 16:57:17;;;;;;;18.27;9.68;;;7.30;99.90;;;;;;2602950;54;20235;31
2023/12/18 16:59:52;;;;;;;25.05;12.30;;;7.30;99.90;;;;;;2603226;54;20908;31
2023/12/18 17:02:35;;;;;;;24.00;11.07;;;7.20;99.90;;;;;;2602832;54;20885;31
2023/12/18 17:05:13;;;;;;;23.23;10.95;;;7.20;99.90;;;;;;2701308;39;20676;31
2023/12/18 17:07:48;;;;;;;26.50;12.35;;;7.20;99.90;;;;;;2603010;54;20042;31
2023/12/18 17:10:23;;;;;;;39.70;19.00;;;7.10;99.90;;;;;;2603049;54;20653;31
2023/12/18 17:12:58;;;;;;;49.72;22.80;;;7.00;99.90;;;;;;2603098;54;20853;31
2023/12/18 17:15:33;;;;;;;39.40;18.17;;;7.00;99.90;;;;;;2720339;39;20413;31
2023/12/18 17:18:09;;;;;;;39.45;18.25;;;6.90;99.90;;;;;;2621906;46;20977;31
2023/12/18 17:20:47;;;;;;;33.35;15.68;;;6.90;99.90;;;;;;2603146;54;20884;31
2023/12/18 17:23:21;;;;;;;25.83;12.98;;;6.90;99.90;;;;;;2603182;54;20805;31
2023/12/18 17:25:56;;;;;;;28.30;13.35;;;6.80;99.90;;;;;;2603056;54;20882;31
2023/12/18 17:28:31;;;;;;;25.65;11.60;;;6.80;99.90;;;;;;2603155;54;20027;31
2023/12/18 17:31:06;;;;;;;22.73;10.63;;;6.80;99.90;;;;;;2603168;54;20868;31
2023/12/18 17:33:41;;;;;;;23.50;11.35;;;6.80;99.90;;;;;;2701523;39;20549;31
2023/12/18 17:36:19;;;;;;;19.10;9.83;;;6.70;99.90;;;;;;2602870;54;20124;31
2023/12/18 17:38:54;;;;;;;22.40;10.43;;;6.70;99.90;;;;;;2603044;54;20868;31
2023/12/18 17:41:29;;;;;;;16.08;9.02;;;6.70;99.90;;;;;;2602980;54;20037;31
2023/12/18 17:44:04;;;;;;;19.10;10.15;;;6.60;99.90;;;;;;2603038;54;20764;31
2023/12/18 17:46:39;;;;;;;22.70;10.20;;;6.60;99.90;;;;;;2602966;54;20652;31
2023/12/18 17:49:14;;;;;;;22.53;10.63;;;6.60;99.90;;;;;;2621792;46;20776;31
2023/12/18 17:51:51;;;;;;;22.75;10.82;;;6.50;99.90;;;;;;2602944;54;20026;31
2023/12/18 17:54:27;;;;;;;21.40;10.65;;;6.50;99.90;;;;;;2603028;54;20816;31
2023/12/18 17:57:03;;;;;;;21.27;10.73;;;6.50;99.90;;;;;;2602856;54;20112;31
2023/12/18 17:59:38;;;;;;;19.42;10.95;;;6.40;99.90;;;;;;2602749;54;20023;31
2023/12/18 18:02:12;;;;;;;20.05;10.05;;;6.40;99.90;;;;;;2621299;46;21205;31
2023/12/18 18:04:49;;;;;;;18.40;9.43;;;6.30;99.90;;;;;;2701245;39;20492;31
2023/12/18 18:07:27;;;;;;;16.98;8.68;;;6.30;99.90;;;;;;2621427;46;20329;31
2023/12/18 18:10:01;;;;;;;18.00;9.60;;;6.30;99.90;;;;;;2603163;54;20057;31
2023/12/18 18:12:36;;;;;;;15.52;8.13;;;6.30;99.90;;;;;;2603064;54;20030;31
2023/12/18 18:15:12;;;;;;;14.55;7.85;;;6.20;99.90;;;;;;2602997;54;20057;31
2023/12/18 18:17:46;;;;;;;18.40;8.25;;;6.20;99.90;;;;;;2603124;54;20139;31
2023/12/18 18:20:21;;;;;;;14.23;7.70;;;6.20;99.90;;;;;;2602733;54;20872;31
2023/12/18 18:22:58;;;;;;;14.35;7.35;;;6.20;99.90;;;;;;2602995;54;20069;31
2023/12/18 18:25:34;;;;;;;17.35;8.25;;;6.20;99.90;;;;;;2601968;54;20052;31
2023/12/18 18:28:09;;;;;;;18.20;8.80;;;6.10;99.90;;;;;;2603034;54;20052;31
2023/12/18 18:30:46;;;;;;;22.05;9.10;;;6.10;99.90;;;;;;2602831;54;20961;31
2023/12/18 18:33:21;;;;;;;19.67;8.85;;;6.10;99.90;;;;;;2603194;54;20030;31
2023/12/18 18:35:59;;;;;;;19.40;8.37;;;6.00;99.90;;;;;;2603118;54;20888;31
2023/12/18 18:38:30;;;;;;;17.40;7.78;;;6.00;99.90;;;;;;2621221;46;21106;31
2023/12/18 18:41:08;;;;;;;14.35;7.75;;;6.00;99.90;;;;;;2621127;46;20042;31
2023/12/18 18:43:43;;;;;;;23.52;9.45;;;6.00;99.90;;;;;;2621189;46;20057;31
2023/12/18 18:46:27;;;;;;;13.43;7.80;;;5.90;99.60;;;;;;2602974;54;20865;31
2023/12/18 18:58:35;;;;;;;14.80;6.70;;;5.90;99.90;;;;;;2611043;54;20011;31
2023/12/18 19:01:11;;;;;;;15.25;7.47;;;5.80;99.70;;;;;;2601421;54;20078;31
2023/12/18 19:03:47;;;;;;;13.10;7.10;;;5.80;99.90;;;;;;2772333;31;20481;31
2023/12/18 19:06:19;;;;;;;22.50;7.30;;;5.80;99.90;;;;;;2621213;46;21258;31
2023/12/18 19:11:52;;;;;;;12.13;7.17;;;5.80;99.90;;;;;;2602542;54;20597;31
2023/12/18 19:14:32;;;;;;;14.52;7.53;;;5.70;98.60;;;;;;2602606;54;20881;31
2023/12/18 19:26:13;;;;;;;15.03;7.40;;;5.50;99.90;;;;;;2701045;39;20507;31
2023/12/18 19:28:47;;;;;;;17.73;8.75;;;5.40;98.50;;;;;;2602049;54;21548;31
2023/12/18 19:31:26;;;;;;;18.07;8.00;;;5.40;98.00;;;;;;2627281;39;21202;31